Time;durP1;ratioP1;P1;durP2;ratioP2;P2;SDS_P1;SDS_P2;PMS_P1;PMS_P2;Temp;Humidity;BMP_temperature;BMP_pressure;BME280_temperature;BME280_humidity;BME280_pressure;Samples;Min_cycle;Max_cycle;Signal;HPM_P1;HPM_P2
2022/01/16 00:04:39;;;;;;;25.20;12.95;;;;;;;;;;5072964;28;20107;-64
2022/01/16 00:07:06;;;;;;;29.90;13.00;;;;;;;;;;5072819;28;20102;-65
2022/01/16 00:09:35;;;;;;;28.40;13.25;;;;;;;;;;5072834;28;20039;-64
2022/01/16 00:12:04;;;;;;;29.95;12.77;;;;;;;;;;5072854;28;20032;-66
2022/01/16 00:14:31;;;;;;;30.95;13.50;;;;;;;;;;5073059;28;20028;-64
2022/01/16 00:16:58;;;;;;;24.65;13.45;;;;;;;;;;5054775;28;20028;-64
2022/01/16 00:19:24;;;;;;;30.17;12.85;;;;;;;;;;5064298;28;20071;-65
2022/01/16 00:21:51;;;;;;;29.48;13.70;;;;;;;;;;5052665;28;20025;-64
2022/01/16 00:24:17;;;;;;;26.38;13.27;;;;;;;;;;5034748;28;20071;-64
2022/01/16 00:26:43;;;;;;;32.15;14.10;;;;;;;;;;5052881;28;20036;-63
2022/01/16 00:29:12;;;;;;;30.25;12.88;;;;;;;;;;5052371;28;20033;-63
2022/01/16 00:31:40;;;;;;;27.15;13.13;;;;;;;;;;5034758;28;20475;-64
2022/01/16 00:34:06;;;;;;;27.13;14.20;;;;;;;;;;5034505;28;20033;-63
2022/01/16 00:36:33;;;;;;;25.73;12.38;;;;;;;;;;5034625;28;20056;-63
2022/01/16 00:38:59;;;;;;;24.08;12.18;;;;;;;;;;5034816;28;20498;-65
2022/01/16 00:41:26;;;;;;;30.02;12.60;;;;;;;;;;5034637;28;20174;-65
2022/01/16 00:43:53;;;;;;;29.88;13.38;;;;;;;;;;5052417;28;20104;-65
2022/01/16 00:46:20;;;;;;;28.65;12.20;;;;;;;;;;5052468;28;20150;-65
2022/01/16 00:48:47;;;;;;;28.23;12.55;;;;;;;;;;5034574;28;20494;-64
2022/01/16 00:51:14;;;;;;;23.08;12.85;;;;;;;;;;5052362;28;20029;-64
2022/01/16 00:53:43;;;;;;;28.10;12.40;;;;;;;;;;5034562;28;20079;-63
2022/01/16 00:56:09;;;;;;;24.58;11.98;;;;;;;;;;5052414;28;20060;-64
2022/01/16 00:58:36;;;;;;;33.78;15.45;;;;;;;;;;5052231;28;20040;-63
2022/01/16 01:01:02;;;;;;;25.30;13.35;;;;;;;;;;5052276;28;20029;-65
2022/01/16 01:03:30;;;;;;;27.05;12.70;;;;;;;;;;5052241;28;20029;-63
2022/01/16 01:05:56;;;;;;;27.42;13.52;;;;;;;;;;5052184;28;20021;-64
2022/01/16 01:08:23;;;;;;;30.02;13.38;;;;;;;;;;5052235;28;20025;-63
2022/01/16 01:10:52;;;;;;;22.67;12.35;;;;;;;;;;5052234;28;20021;-63
2022/01/16 01:13:24;;;;;;;26.10;12.75;;;;;;;;;;5052187;28;20100;-64
2022/01/16 01:15:58;;;;;;;24.92;13.27;;;;;;;;;;5034334;28;20033;-64
2022/01/16 01:21:28;;;;;;;38.47;13.90;;;;;;;;;;5051670;28;20131;-64
2022/01/16 01:23:57;;;;;;;29.75;14.80;;;;;;;;;;5052055;28;20505;-64
2022/01/16 01:26:28;;;;;;;32.85;16.05;;;;;;;;;;5051926;28;20078;-64
2022/01/16 01:28:54;;;;;;;36.05;14.70;;;;;;;;;;5050677;28;20032;-64
2022/01/16 01:31:21;;;;;;;30.00;14.90;;;;;;;;;;5034107;28;20074;-64
2022/01/16 01:33:47;;;;;;;29.02;15.52;;;;;;;;;;5051904;28;20033;-64
2022/01/16 01:36:13;;;;;;;34.78;19.52;;;;;;;;;;5051595;28;20056;-63
2022/01/16 01:38:40;;;;;;;34.15;18.95;;;;;;;;;;5051156;28;20040;-63
2022/01/16 01:41:06;;;;;;;27.83;17.30;;;;;;;;;;5051630;28;20070;-64
2022/01/16 01:51:34;;;;;;;25.20;14.27;;;;;;;;;;5055582;28;20048;-64
2022/01/16 01:54:01;;;;;;;29.52;14.75;;;;;;;;;;5037274;28;20391;-64
2022/01/16 01:56:28;;;;;;;27.70;15.93;;;;;;;;;;5055209;28;20100;-64
2022/01/16 01:58:56;;;;;;;29.77;15.20;;;;;;;;;;5055390;28;20033;-64
2022/01/16 02:01:22;;;;;;;25.80;13.38;;;;;;;;;;5037465;28;20040;-64
2022/01/16 02:03:49;;;;;;;24.02;12.25;;;;;;;;;;5037204;28;20477;-64
2022/01/16 02:06:17;;;;;;;21.88;13.10;;;;;;;;;;5055459;28;20374;-64
2022/01/16 02:08:44;;;;;;;27.00;13.80;;;;;;;;;;5053457;28;20401;-64
2022/01/16 02:11:12;;;;;;;25.63;14.13;;;;;;;;;;5054844;28;20025;-64
2022/01/16 02:13:49;;;;;;;43.72;15.70;;;;;;;;;;5036957;28;20033;-64
2022/01/16 02:33:00;;;;;;;29.13;15.75;;;;;;;;;;5073935;28;20402;-64
2022/01/16 02:35:27;;;;;;;32.50;15.60;;;;;;;;;;5073820;28;20480;-64
2022/01/16 02:37:53;;;;;;;40.88;17.67;;;;;;;;;;5055562;28;20033;-64
2022/01/16 02:40:24;;;;;;;40.47;17.85;;;;;;;;;;5074467;28;20020;-64
2022/01/16 02:42:52;;;;;;;33.25;19.13;;;;;;;;;;5074472;28;20101;-64
2022/01/16 02:45:33;;;;;;;39.92;21.27;;;;;;;;;;5073503;28;20009;-65
2022/01/16 02:48:02;;;;;;;37.33;22.38;;;;;;;;;;5072191;28;20025;-65
2022/01/16 02:50:28;;;;;;;41.03;22.58;;;;;;;;;;5072330;28;20099;-64
2022/01/16 02:52:55;;;;;;;44.15;23.05;;;;;;;;;;5055056;28;20029;-64
2022/01/16 02:55:22;;;;;;;37.28;20.35;;;;;;;;;;5073821;28;20027;-64
2022/01/16 02:57:51;;;;;;;37.35;20.65;;;;;;;;;;5073756;28;20073;-64
2022/01/16 03:00:17;;;;;;;38.78;21.10;;;;;;;;;;5073909;28;20013;-64
2022/01/16 03:02:44;;;;;;;41.55;21.42;;;;;;;;;;5073793;28;20378;-65
2022/01/16 03:05:10;;;;;;;38.53;20.88;;;;;;;;;;5039311;28;20024;-63
2022/01/16 03:07:37;;;;;;;45.65;22.02;;;;;;;;;;5064822;28;20037;-63
2022/01/16 03:10:27;;;;;;;46.67;21.38;;;;;;;;;;5079880;28;20024;-63
2022/01/16 03:12:54;;;;;;;34.97;19.65;;;;;;;;;;5073323;28;20036;-63
2022/01/16 03:15:21;;;;;;;42.55;20.55;;;;;;;;;;5074054;28;20045;-65
2022/01/16 03:23:22;;;;;;;46.50;24.33;;;;;;;;;;5071235;28;20050;-64
2022/01/16 03:25:49;;;;;;;45.50;23.95;;;;;;;;;;5072526;28;20417;-65
2022/01/16 03:28:16;;;;;;;43.33;21.98;;;;;;;;;;5072810;28;20107;-64
2022/01/16 03:30:43;;;;;;;40.88;22.42;;;;;;;;;;5054431;28;20032;-65
2022/01/16 03:33:10;;;;;;;42.78;22.42;;;;;;;;;;5072558;28;20057;-65
2022/01/16 03:35:36;;;;;;;41.90;23.23;;;;;;;;;;5054034;28;20078;-65
2022/01/16 03:38:03;;;;;;;43.45;22.60;;;;;;;;;;5054655;28;20482;-65
2022/01/16 03:40:29;;;;;;;44.72;18.85;;;;;;;;;;5073179;28;20539;-64
2022/01/16 03:43:09;;;;;;;39.95;20.63;;;;;;;;;;5055211;28;20029;-64
2022/01/16 03:45:35;;;;;;;39.88;18.63;;;;;;;;;;5040525;28;20036;-65
2022/01/16 03:48:01;;;;;;;39.10;19.63;;;;;;;;;;5071678;28;20024;-66
2022/01/16 03:50:28;;;;;;;35.63;19.90;;;;;;;;;;5054759;28;20028;-65
2022/01/16 03:52:54;;;;;;;32.95;19.00;;;;;;;;;;5071893;28;20081;-65
2022/01/16 03:55:21;;;;;;;43.08;19.00;;;;;;;;;;5070996;28;20028;-64
2022/01/16 03:57:47;;;;;;;35.67;19.00;;;;;;;;;;5054252;28;20032;-66
2022/01/16 04:00:13;;;;;;;36.08;17.80;;;;;;;;;;5054505;28;20393;-63
2022/01/16 04:02:40;;;;;;;35.55;17.80;;;;;;;;;;5071294;28;20030;-64
2022/01/16 04:05:06;;;;;;;40.08;17.23;;;;;;;;;;5053879;28;20036;-65
2022/01/16 04:07:35;;;;;;;34.65;17.30;;;;;;;;;;5072446;28;20056;-66
2022/01/16 04:10:17;;;;;;;37.25;14.68;;;;;;;;;;5072513;28;20025;-66
2022/01/16 04:12:45;;;;;;;38.63;15.55;;;;;;;;;;5072496;28;20040;-66
2022/01/16 04:17:38;;;;;;;37.28;15.43;;;;;;;;;;5071967;28;20081;-66
2022/01/16 04:20:05;;;;;;;36.03;15.95;;;;;;;;;;5053247;28;20127;-65
2022/01/16 04:22:32;;;;;;;38.33;17.92;;;;;;;;;;5053094;28;20017;-66
2022/01/16 04:24:58;;;;;;;38.70;19.70;;;;;;;;;;5050493;28;20535;-66
2022/01/16 04:27:30;;;;;;;46.33;22.10;;;;;;;;;;5071046;28;20028;-65
2022/01/16 04:29:57;;;;;;;52.03;26.42;;;;;;;;;;5051014;28;20386;-65
2022/01/16 04:32:23;;;;;;;50.65;27.15;;;;;;;;;;5068484;28;20154;-65
2022/01/16 04:34:49;;;;;;;54.42;26.63;;;;;;;;;;5068169;28;20103;-65
2022/01/16 04:37:16;;;;;;;48.00;27.20;;;;;;;;;;5050406;28;20120;-65
2022/01/16 04:39:49;;;;;;;52.08;27.92;;;;;;;;;;5070634;28;20024;-64
2022/01/16 04:48:07;;;;;;;54.70;28.95;;;;;;;;;;5070738;28;20024;-66
2022/01/16 04:50:33;;;;;;;50.00;28.02;;;;;;;;;;5070656;28;20486;-64
2022/01/16 04:52:59;;;;;;;54.15;24.65;;;;;;;;;;5074063;28;20527;-66
2022/01/16 04:55:27;;;;;;;43.38;18.48;;;;;;;;;;5068257;28;20267;-65
2022/01/16 04:57:54;;;;;;;34.95;16.88;;;;;;;;;;5053024;28;20074;-66
2022/01/16 05:00:20;;;;;;;35.30;18.60;;;;;;;;;;5068201;28;20027;-65
2022/01/16 05:02:46;;;;;;;46.20;18.48;;;;;;;;;;5069855;28;20482;-66
2022/01/16 05:05:13;;;;;;;44.13;20.27;;;;;;;;;;5070586;28;20079;-66
2022/01/16 05:07:39;;;;;;;40.78;19.45;;;;;;;;;;5071627;28;20051;-65
2022/01/16 05:10:06;;;;;;;33.88;17.73;;;;;;;;;;5066730;28;20478;-65
2022/01/16 05:12:36;;;;;;;37.63;17.35;;;;;;;;;;5052600;28;20041;-65
2022/01/16 05:17:47;;;;;;;35.50;19.33;;;;;;;;;;5076336;28;20059;-65
2022/01/16 05:20:14;;;;;;;42.20;20.02;;;;;;;;;;5074281;28;20047;-67
2022/01/16 05:22:40;;;;;;;43.47;20.40;;;;;;;;;;5075174;28;20048;-66
2022/01/16 05:25:08;;;;;;;37.85;19.73;;;;;;;;;;5056749;28;20109;-65
2022/01/16 05:27:35;;;;;;;46.75;21.88;;;;;;;;;;5072496;28;20024;-65
2022/01/16 05:30:01;;;;;;;47.25;21.00;;;;;;;;;;5077853;28;20077;-66
2022/01/16 05:32:28;;;;;;;45.05;20.95;;;;;;;;;;5055657;28;20032;-65
2022/01/16 05:34:54;;;;;;;45.72;21.63;;;;;;;;;;5054744;28;20046;-66
2022/01/16 05:37:20;;;;;;;39.13;20.85;;;;;;;;;;5056619;28;20475;-66
2022/01/16 05:39:49;;;;;;;41.53;20.60;;;;;;;;;;5067831;28;20363;-66
2022/01/16 05:42:15;;;;;;;55.50;22.20;;;;;;;;;;5073264;28;20013;-66
2022/01/16 05:44:41;;;;;;;50.42;25.77;;;;;;;;;;5073216;28;20044;-65
2022/01/16 05:47:12;;;;;;;45.28;25.75;;;;;;;;;;5072256;28;20017;-65
2022/01/16 05:49:39;;;;;;;53.65;27.08;;;;;;;;;;5060633;28;20021;-66
2022/01/16 05:52:06;;;;;;;43.90;25.77;;;;;;;;;;5056754;28;20391;-64
2022/01/16 05:54:33;;;;;;;53.70;29.55;;;;;;;;;;5054455;28;20243;-68
2022/01/16 05:56:59;;;;;;;52.45;28.02;;;;;;;;;;5073856;28;20021;-66
2022/01/16 05:59:26;;;;;;;53.38;28.63;;;;;;;;;;5071513;28;20020;-65
2022/01/16 06:04:59;;;;;;;62.28;31.00;;;;;;;;;;5071595;28;20116;-65
2022/01/16 06:07:25;;;;;;;61.78;35.88;;;;;;;;;;5073193;28;20020;-64
2022/01/16 06:09:52;;;;;;;72.53;41.38;;;;;;;;;;5060238;28;20046;-64
2022/01/16 06:12:19;;;;;;;88.35;50.15;;;;;;;;;;5071774;28;20032;-65
2022/01/16 06:14:45;;;;;;;87.68;52.60;;;;;;;;;;5073136;28;20032;-66
2022/01/16 06:17:12;;;;;;;90.18;50.38;;;;;;;;;;5071931;28;20043;-66
2022/01/16 06:19:38;;;;;;;86.20;51.00;;;;;;;;;;5070129;28;20116;-66
2022/01/16 06:22:05;;;;;;;92.80;51.20;;;;;;;;;;5074388;28;20031;-66
2022/01/16 06:24:31;;;;;;;72.97;46.50;;;;;;;;;;5058792;28;20024;-66
2022/01/16 06:26:58;;;;;;;78.88;43.92;;;;;;;;;;5054949;28;20058;-66
2022/01/16 06:29:24;;;;;;;71.63;42.10;;;;;;;;;;5070421;28;20020;-66
2022/01/16 06:31:51;;;;;;;66.75;38.00;;;;;;;;;;5072292;28;20020;-66
2022/01/16 06:34:17;;;;;;;67.97;36.10;;;;;;;;;;5072573;28;20089;-66
2022/01/16 06:36:44;;;;;;;57.22;30.80;;;;;;;;;;5074019;28;20032;-67
2022/01/16 06:39:11;;;;;;;52.20;28.58;;;;;;;;;;5073087;28;20032;-66
2022/01/16 06:41:38;;;;;;;51.67;29.38;;;;;;;;;;5073966;28;20056;-65
2022/01/16 06:44:04;;;;;;;49.30;28.80;;;;;;;;;;5056120;28;20397;-67
2022/01/16 06:46:31;;;;;;;47.90;28.83;;;;;;;;;;5053599;28;20029;-66
2022/01/16 06:48:57;;;;;;;55.35;27.25;;;;;;;;;;5057383;28;20035;-66
2022/01/16 06:51:24;;;;;;;47.42;26.60;;;;;;;;;;5073461;28;20386;-66
2022/01/16 06:53:57;;;;;;;47.50;25.50;;;;;;;;;;5072459;28;20074;-66
2022/01/16 07:59:32;;;;;;;41.53;20.27;;;;;;;;;;5051189;28;20083;-69
2022/01/16 08:01:59;;;;;;;50.85;22.83;;;;;;;;;;5050647;28;20037;-67
2022/01/16 08:04:25;;;;;;;44.03;22.70;;;;;;;;;;5034589;28;20036;-66
2022/01/16 08:06:51;;;;;;;49.28;25.23;;;;;;;;;;5032632;28;20043;-67
2022/01/16 08:09:18;;;;;;;56.85;26.80;;;;;;;;;;5034533;28;20099;-67
2022/01/16 08:11:44;;;;;;;58.95;29.73;;;;;;;;;;5033968;28;20108;-67
2022/01/16 08:14:10;;;;;;;52.13;28.15;;;;;;;;;;5034445;28;20171;-67
2022/01/16 08:16:37;;;;;;;55.13;28.05;;;;;;;;;;5050659;28;20490;-67
2022/01/16 08:19:03;;;;;;;54.05;26.35;;;;;;;;;;5050348;28;20033;-67
2022/01/16 08:21:29;;;;;;;54.80;25.50;;;;;;;;;;5033922;28;20025;-66
2022/01/16 08:23:56;;;;;;;55.22;26.80;;;;;;;;;;5051872;28;20025;-67
2022/01/16 09:27:55;;;;;;;32.30;19.55;;;;;;;;;;5073856;27;20438;-65
2022/01/16 09:30:23;;;;;;;46.10;18.98;;;;;;;;;;5052993;28;20057;-66
2022/01/16 09:32:50;;;;;;;43.13;22.30;;;;;;;;;;5053316;28;20029;-66
2022/01/16 09:35:17;;;;;;;40.97;19.40;;;;;;;;;;5049924;28;20037;-67
2022/01/16 09:37:44;;;;;;;44.50;19.38;;;;;;;;;;5034111;28;20041;-67
2022/01/16 09:40:12;;;;;;;43.80;23.98;;;;;;;;;;5035963;28;20040;-67
2022/01/16 09:42:38;;;;;;;38.83;21.75;;;;;;;;;;5052012;28;20028;-66
2022/01/16 09:45:06;;;;;;;45.22;20.67;;;;;;;;;;5053475;28;20043;-67
2022/01/16 09:47:32;;;;;;;40.00;19.52;;;;;;;;;;5041941;28;20036;-67
2022/01/16 09:49:59;;;;;;;47.65;20.60;;;;;;;;;;5056395;28;20041;-67
2022/01/16 09:52:35;;;;;;;36.40;20.13;;;;;;;;;;5054299;28;20116;-66
2022/01/16 09:55:01;;;;;;;43.88;21.48;;;;;;;;;;5058437;28;20043;-66
2022/01/16 09:57:28;;;;;;;44.40;21.92;;;;;;;;;;5054070;28;20490;-67
2022/01/16 09:59:54;;;;;;;47.80;24.98;;;;;;;;;;5034305;28;20063;-67
2022/01/16 10:02:20;;;;;;;49.65;27.75;;;;;;;;;;5052894;28;20037;-67
2022/01/16 10:04:47;;;;;;;52.65;26.38;;;;;;;;;;5035694;28;20033;-67
2022/01/16 10:07:17;;;;;;;49.88;28.15;;;;;;;;;;5052485;28;20033;-67
2022/01/16 10:10:06;;;;;;;49.70;26.63;;;;;;;;;;5051495;28;20037;-68
2022/01/16 10:12:34;;;;;;;53.67;25.45;;;;;;;;;;5053226;28;20021;-67
2022/01/16 10:15:14;;;;;;;47.08;26.38;;;;;;;;;;5045005;28;20032;-66
2022/01/16 10:17:45;;;;;;;52.03;29.75;;;;;;;;;;5046013;28;21266;-67
2022/01/16 10:20:11;;;;;;;55.40;30.27;;;;;;;;;;5051301;28;20033;-67
2022/01/16 10:22:39;;;;;;;48.85;27.48;;;;;;;;;;5036097;28;20037;-66
2022/01/16 10:25:06;;;;;;;45.55;26.60;;;;;;;;;;5054036;28;20055;-67
2022/01/16 10:27:38;;;;;;;58.65;25.70;;;;;;;;;;5055244;28;20508;-67
2022/01/16 10:30:07;;;;;;;53.10;25.00;;;;;;;;;;5055766;28;20097;-66
2022/01/16 10:32:36;;;;;;;46.67;23.33;;;;;;;;;;5073767;28;20056;-66
2022/01/16 10:35:14;;;;;;;36.45;18.33;;;;;;;;;;5073700;28;20107;-66
2022/01/16 10:37:58;;;;;;;48.58;20.17;;;;;;;;;;5073093;28;20546;-66
2022/01/16 10:40:35;;;;;;;38.78;18.27;;;;;;;;;;5073244;28;20107;-67
2022/01/16 10:43:13;;;;;;;40.72;17.10;;;;;;;;;;5068975;28;20077;-67
2022/01/16 10:45:40;;;;;;;42.97;16.50;;;;;;;;;;5068220;28;20033;-66
2022/01/16 10:48:07;;;;;;;47.03;19.80;;;;;;;;;;5073853;28;20032;-66
2022/01/16 10:50:34;;;;;;;52.63;23.20;;;;;;;;;;5073062;28;20363;-66
2022/01/16 10:53:06;;;;;;;48.28;18.33;;;;;;;;;;5052508;28;20472;-67
2022/01/16 10:55:37;;;;;;;64.90;26.80;;;;;;;;;;5073614;28;20498;-66
2022/01/16 10:58:09;;;;;;;60.75;24.77;;;;;;;;;;5073604;28;20044;-67
2022/01/16 11:00:36;;;;;;;60.88;24.33;;;;;;;;;;5073325;28;20035;-68
2022/01/16 11:03:04;;;;;;;64.28;24.83;;;;;;;;;;5073098;28;20035;-67
2022/01/16 11:05:33;;;;;;;61.75;27.15;;;;;;;;;;5073749;28;20063;-67
2022/01/16 11:08:01;;;;;;;81.47;29.13;;;;;;;;;;5073541;28;20387;-67
2022/01/16 11:10:32;;;;;;;68.03;29.05;;;;;;;;;;5073705;28;20033;-66
2022/01/16 11:13:00;;;;;;;58.80;25.83;;;;;;;;;;5073416;28;20059;-66
2022/01/16 11:15:27;;;;;;;61.03;26.00;;;;;;;;;;5054719;28;20028;-66
2022/01/16 11:17:54;;;;;;;65.28;24.80;;;;;;;;;;5073127;28;20120;-67
2022/01/16 11:20:27;;;;;;;62.35;24.52;;;;;;;;;;5075402;28;20024;-67
2022/01/16 11:25:31;;;;;;;72.65;30.13;;;;;;;;;;5073047;28;20056;-66
2022/01/16 11:28:01;;;;;;;77.60;35.47;;;;;;;;;;5072457;28;20046;-67
2022/01/16 11:30:31;;;;;;;86.57;40.53;;;;;;;;;;5072965;28;20037;-67
2022/01/16 11:32:58;;;;;;;69.53;29.55;;;;;;;;;;5055232;28;20500;-67
2022/01/16 11:35:28;;;;;;;57.40;23.50;;;;;;;;;;5068672;28;20068;-67
2022/01/16 11:37:55;;;;;;;62.50;28.63;;;;;;;;;;5070005;28;20064;-66
2022/01/16 11:40:31;;;;;;;71.65;26.42;;;;;;;;;;5072232;28;20082;-68
2022/01/16 11:43:17;;;;;;;68.22;26.75;;;;;;;;;;5072837;28;20025;-66
2022/01/16 11:45:48;;;;;;;56.83;25.48;;;;;;;;;;5072986;28;20111;-65
2022/01/16 11:48:17;;;;;;;78.32;28.33;;;;;;;;;;5073472;28;20036;-66
2022/01/16 11:50:44;;;;;;;75.55;28.50;;;;;;;;;;5054626;28;20045;-66
2022/01/16 11:53:10;;;;;;;81.50;35.75;;;;;;;;;;5072504;28;20040;-66
2022/01/16 11:55:36;;;;;;;91.85;34.55;;;;;;;;;;5073019;28;20082;-66
2022/01/16 11:58:03;;;;;;;85.40;34.42;;;;;;;;;;5072611;28;20390;-66
2022/01/16 12:00:44;;;;;;;84.72;38.80;;;;;;;;;;5072650;28;20059;-67
2022/01/16 12:03:29;;;;;;;81.03;36.15;;;;;;;;;;5072204;28;20095;-67
2022/01/16 12:06:15;;;;;;;75.35;29.23;;;;;;;;;;5070791;28;20055;-67
2022/01/16 12:08:45;;;;;;;63.17;27.88;;;;;;;;;;5078300;28;20402;-66
2022/01/16 12:11:31;;;;;;;64.50;27.35;;;;;;;;;;5082156;28;20371;-67
2022/01/16 14:37:55;;;;;;;106.05;52.15;;;;;;;;;;5084202;28;20195;-67
2022/01/16 14:40:21;;;;;;;107.32;48.80;;;;;;;;;;5114897;28;20149;-67
2022/01/16 14:42:57;;;;;;;103.45;50.38;;;;;;;;;;5115139;28;20036;-67
2022/01/16 14:45:23;;;;;;;108.43;49.15;;;;;;;;;;5115049;28;20106;-66
2022/01/16 14:47:50;;;;;;;105.70;48.85;;;;;;;;;;5113504;28;20477;-67
2022/01/16 14:50:16;;;;;;;106.50;46.75;;;;;;;;;;5114489;28;20040;-68
2022/01/16 14:52:42;;;;;;;116.78;47.13;;;;;;;;;;5114918;28;20488;-66
2022/01/16 14:55:09;;;;;;;112.75;47.63;;;;;;;;;;5096421;28;20394;-66
2022/01/16 14:57:36;;;;;;;101.00;42.15;;;;;;;;;;5113253;28;20038;-66
2022/01/16 15:00:02;;;;;;;101.55;43.63;;;;;;;;;;5114786;28;20036;-67
2022/01/16 15:02:33;;;;;;;100.50;42.63;;;;;;;;;;5114718;28;20024;-66
2022/01/16 15:04:59;;;;;;;106.57;41.95;;;;;;;;;;5114696;28;20028;-67
2022/01/16 15:07:25;;;;;;;93.38;39.95;;;;;;;;;;5114646;28;20023;-66
2022/01/16 15:09:52;;;;;;;103.13;40.35;;;;;;;;;;5114573;28;20020;-66
2022/01/16 15:12:18;;;;;;;91.20;39.10;;;;;;;;;;5114518;28;20486;-66
2022/01/16 15:14:45;;;;;;;88.25;38.90;;;;;;;;;;5114438;28;20530;-67
2022/01/16 15:17:11;;;;;;;100.82;40.10;;;;;;;;;;5113183;28;20072;-67
2022/01/16 15:19:37;;;;;;;109.57;43.15;;;;;;;;;;5113747;28;20507;-66
2022/01/16 15:22:37;;;;;;;107.03;47.10;;;;;;;;;;5114371;28;20031;-66
2022/01/16 15:24:56;;;;;;;122.38;47.90;;;;;;;;;;5109891;28;20036;-66
2022/01/16 15:27:23;;;;;;;131.35;57.50;;;;;;;;;;5113584;28;20034;-67
2022/01/16 15:29:50;;;;;;;125.25;57.28;;;;;;;;;;5114113;28;20390;-67
2022/01/16 15:32:17;;;;;;;138.77;61.83;;;;;;;;;;5113013;28;20038;-67
2022/01/16 15:34:43;;;;;;;137.10;60.22;;;;;;;;;;5108993;28;20036;-67
2022/01/16 15:37:12;;;;;;;120.57;52.50;;;;;;;;;;5113757;28;20060;-67
2022/01/16 15:39:38;;;;;;;140.40;62.35;;;;;;;;;;5093145;28;20477;-67
2022/01/16 15:42:05;;;;;;;125.53;55.72;;;;;;;;;;5113272;28;20393;-66
2022/01/16 15:44:32;;;;;;;116.50;56.05;;;;;;;;;;5112232;28;20100;-68
2022/01/16 15:46:58;;;;;;;125.40;57.67;;;;;;;;;;5106341;28;20034;-66
2022/01/16 15:49:24;;;;;;;125.25;57.67;;;;;;;;;;5113760;28;20039;-66
2022/01/16 15:51:51;;;;;;;123.85;58.35;;;;;;;;;;5113240;28;20035;-67
2022/01/16 15:54:17;;;;;;;149.65;68.05;;;;;;;;;;5113283;28;20069;-67
2022/01/16 15:56:43;;;;;;;144.10;69.10;;;;;;;;;;5113169;28;20035;-67
2022/01/16 15:59:10;;;;;;;141.85;67.20;;;;;;;;;;5103244;28;20081;-67
2022/01/16 16:01:36;;;;;;;147.40;68.00;;;;;;;;;;5113514;28;20099;-68
2022/01/16 16:04:04;;;;;;;147.68;70.25;;;;;;;;;;5113597;28;20049;-67
2022/01/16 16:06:32;;;;;;;161.57;76.85;;;;;;;;;;5112245;28;20370;-67
2022/01/16 16:08:58;;;;;;;155.98;79.13;;;;;;;;;;5102656;28;20036;-67
2022/01/16 16:11:25;;;;;;;154.13;78.13;;;;;;;;;;5106063;28;20036;-66
2022/01/16 16:13:52;;;;;;;152.40;78.43;;;;;;;;;;5111679;28;20040;-67
2022/01/16 16:16:19;;;;;;;167.73;87.03;;;;;;;;;;5093066;28;20089;-66
2022/01/16 16:18:47;;;;;;;192.70;93.32;;;;;;;;;;5109878;28;20036;-67
2022/01/16 16:21:14;;;;;;;205.75;105.85;;;;;;;;;;5111776;28;20485;-67
2022/01/16 16:23:41;;;;;;;195.00;107.05;;;;;;;;;;5093978;28;20036;-67
2022/01/16 16:26:07;;;;;;;212.20;113.20;;;;;;;;;;5113274;28;20473;-66
2022/01/16 16:28:34;;;;;;;204.73;109.75;;;;;;;;;;5095024;28;20088;-67
2022/01/16 16:31:01;;;;;;;217.45;109.28;;;;;;;;;;5094951;28;20035;-67
2022/01/16 16:33:28;;;;;;;217.88;114.60;;;;;;;;;;5094896;28;20052;-68
2022/01/16 16:35:56;;;;;;;222.45;119.20;;;;;;;;;;5110892;28;20036;-66
2022/01/16 16:38:22;;;;;;;240.68;127.88;;;;;;;;;;5111358;28;20047;-66
2022/01/16 16:40:49;;;;;;;228.77;127.20;;;;;;;;;;5094809;28;20431;-69
2022/01/16 16:43:16;;;;;;;231.77;124.22;;;;;;;;;;5109749;28;20032;-67
2022/01/16 16:45:42;;;;;;;229.90;122.10;;;;;;;;;;5103560;28;20046;-66
2022/01/16 16:48:10;;;;;;;220.60;120.85;;;;;;;;;;5092052;28;20377;-67
2022/01/16 16:50:37;;;;;;;220.48;115.63;;;;;;;;;;5093709;28;20039;-66
2022/01/16 16:53:05;;;;;;;211.15;115.40;;;;;;;;;;5112955;28;20036;-69
2022/01/16 16:55:32;;;;;;;221.98;119.32;;;;;;;;;;5113187;28;20373;-66
2022/01/16 16:58:26;;;;;;;225.80;119.95;;;;;;;;;;5094812;28;20031;-66
2022/01/16 17:01:03;;;;;;;223.07;114.20;;;;;;;;;;5113013;28;20036;-67
2022/01/16 17:03:30;;;;;;;224.45;117.45;;;;;;;;;;5112930;28;20500;-66
2022/01/16 17:05:56;;;;;;;207.20;113.50;;;;;;;;;;5112885;28;20399;-67
2022/01/16 17:08:23;;;;;;;222.07;111.70;;;;;;;;;;5112848;28;20035;-66
2022/01/16 17:10:50;;;;;;;225.40;118.35;;;;;;;;;;5105350;28;20435;-67
2022/01/16 17:13:16;;;;;;;217.90;112.93;;;;;;;;;;5096448;28;20024;-66
2022/01/16 17:15:43;;;;;;;220.10;114.50;;;;;;;;;;5096235;28;20028;-66
2022/01/16 17:18:10;;;;;;;213.90;113.47;;;;;;;;;;5094724;28;20038;-67
2022/01/16 17:20:36;;;;;;;199.60;106.25;;;;;;;;;;5096125;28;20024;-66
2022/01/16 17:23:03;;;;;;;220.57;108.57;;;;;;;;;;5094964;28;20032;-66
2022/01/16 17:25:30;;;;;;;213.48;103.78;;;;;;;;;;5110512;28;20039;-66
2022/01/16 17:27:56;;;;;;;212.25;106.43;;;;;;;;;;5097987;28;20036;-66
2022/01/16 17:30:23;;;;;;;194.95;101.63;;;;;;;;;;5116540;28;20397;-66
2022/01/16 17:32:50;;;;;;;187.45;95.45;;;;;;;;;;5116507;28;20080;-66
2022/01/16 17:35:16;;;;;;;202.68;92.72;;;;;;;;;;5097658;28;20432;-66
2022/01/16 17:37:42;;;;;;;184.60;92.57;;;;;;;;;;5113100;28;20051;-66
2022/01/16 17:40:09;;;;;;;193.27;93.05;;;;;;;;;;5116362;28;20031;-66
2022/01/16 17:42:35;;;;;;;170.40;85.45;;;;;;;;;;5115791;28;20028;-66
2022/01/16 17:45:02;;;;;;;177.95;82.63;;;;;;;;;;5116308;28;20031;-66
2022/01/16 17:47:28;;;;;;;184.82;87.65;;;;;;;;;;5097504;28;20182;-66
2022/01/16 17:49:56;;;;;;;173.13;84.28;;;;;;;;;;5115629;28;20100;-66
2022/01/16 17:52:23;;;;;;;175.05;85.93;;;;;;;;;;5115175;28;20126;-66
2022/01/16 17:54:54;;;;;;;165.35;82.13;;;;;;;;;;5115894;28;20060;-66
2022/01/16 17:57:20;;;;;;;165.95;81.43;;;;;;;;;;5116002;28;20147;-65
2022/01/16 17:59:47;;;;;;;173.05;80.53;;;;;;;;;;5097626;28;20031;-66
2022/01/16 18:02:14;;;;;;;169.68;83.07;;;;;;;;;;5115924;28;20088;-66
2022/01/16 18:04:40;;;;;;;173.10;76.38;;;;;;;;;;5116343;28;20032;-66
2022/01/16 18:07:07;;;;;;;157.63;73.35;;;;;;;;;;5115473;28;20273;-66
2022/01/16 18:09:33;;;;;;;169.50;74.50;;;;;;;;;;5115609;28;20051;-66
2022/01/16 18:12:00;;;;;;;161.88;74.90;;;;;;;;;;5108054;28;20085;-68
2022/01/16 18:14:27;;;;;;;153.45;71.63;;;;;;;;;;5112960;28;20358;-66
2022/01/16 18:16:54;;;;;;;151.27;66.57;;;;;;;;;;5113797;28;20066;-67
2022/01/16 18:19:20;;;;;;;150.15;70.00;;;;;;;;;;5115483;28;20169;-66
2022/01/16 18:21:47;;;;;;;152.23;69.40;;;;;;;;;;5115491;28;20427;-67
2022/01/16 18:24:16;;;;;;;157.88;72.50;;;;;;;;;;5114880;28;20398;-68
2022/01/16 18:26:43;;;;;;;150.32;72.40;;;;;;;;;;5115502;28;20023;-66
2022/01/16 18:29:09;;;;;;;155.75;69.47;;;;;;;;;;5114480;28;20490;-68
2022/01/16 18:31:36;;;;;;;151.85;71.22;;;;;;;;;;5114145;28;20036;-67
2022/01/16 18:34:06;;;;;;;156.77;69.88;;;;;;;;;;5114795;28;20019;-67
2022/01/16 18:36:32;;;;;;;144.82;70.07;;;;;;;;;;5096698;28;20515;-64
2022/01/16 18:39:01;;;;;;;144.85;69.30;;;;;;;;;;5115138;28;20508;-66
2022/01/16 18:41:28;;;;;;;159.55;69.85;;;;;;;;;;5114823;28;20043;-65
2022/01/16 18:44:04;;;;;;;167.93;66.88;;;;;;;;;;5105691;28;20032;-65
2022/01/16 18:46:32;;;;;;;144.18;67.28;;;;;;;;;;5094547;28;20478;-65
2022/01/16 18:48:58;;;;;;;146.45;69.55;;;;;;;;;;5093267;28;20390;-65
2022/01/16 18:51:25;;;;;;;152.75;67.35;;;;;;;;;;5111002;28;20032;-65
2022/01/16 18:53:52;;;;;;;146.18;63.03;;;;;;;;;;5114076;28;20032;-64
2022/01/16 18:56:19;;;;;;;144.60;61.45;;;;;;;;;;5096164;28;20531;-65
2022/01/16 18:58:45;;;;;;;140.07;67.97;;;;;;;;;;5114693;28;20508;-64
2022/01/16 19:01:12;;;;;;;148.27;67.68;;;;;;;;;;5114826;28;20031;-64
2022/01/16 19:03:39;;;;;;;154.82;63.80;;;;;;;;;;5095717;28;20031;-64
2022/01/16 19:06:05;;;;;;;150.73;65.15;;;;;;;;;;5107117;28;20074;-65
2022/01/16 19:08:32;;;;;;;150.27;71.30;;;;;;;;;;5114077;28;20019;-66
2022/01/16 19:11:00;;;;;;;144.85;62.78;;;;;;;;;;5114222;28;20027;-65
2022/01/16 19:13:29;;;;;;;141.43;65.90;;;;;;;;;;5114736;28;20123;-66
2022/01/16 19:15:55;;;;;;;156.55;64.97;;;;;;;;;;5096207;28;20043;-65
2022/01/16 19:18:21;;;;;;;143.50;64.10;;;;;;;;;;5114710;28;20107;-65
2022/01/16 19:20:48;;;;;;;141.50;61.03;;;;;;;;;;5114288;28;20042;-66
2022/01/16 19:23:14;;;;;;;138.00;60.22;;;;;;;;;;5113078;28;20050;-65
2022/01/16 19:25:41;;;;;;;148.18;58.00;;;;;;;;;;5113069;28;20232;-65
2022/01/16 19:28:08;;;;;;;153.05;58.80;;;;;;;;;;5113383;28;20036;-65
2022/01/16 19:30:35;;;;;;;139.30;58.40;;;;;;;;;;5114223;28;20027;-65
2022/01/16 19:33:06;;;;;;;147.63;57.47;;;;;;;;;;5114151;28;20028;-65
2022/01/16 19:36:06;;;;;;;130.15;52.97;;;;;;;;;;5094958;28;20064;-65
2022/01/16 19:38:33;;;;;;;144.20;56.40;;;;;;;;;;5113803;28;20113;-65